createdAt,value
2023-06-29T00:01:59.659Z,12.77
2023-06-29T00:04:27.024Z,12.65
2023-06-29T00:06:55.469Z,12.88
2023-06-29T00:09:23.360Z,12.85
2023-06-29T00:11:50.286Z,12.80
2023-06-29T00:14:17.232Z,12.00
2023-06-29T00:16:44.089Z,13.18
2023-06-29T00:19:12.847Z,11.75
2023-06-29T00:21:40.215Z,12.90
2023-06-29T00:24:07.468Z,12.65
2023-06-29T00:26:34.383Z,11.68
2023-06-29T00:29:01.322Z,12.88
2023-06-29T00:31:28.451Z,12.40
2023-06-29T00:33:55.302Z,12.00
2023-06-29T00:36:22.402Z,11.98
2023-06-29T00:38:49.445Z,11.23
2023-06-29T00:41:17.196Z,12.35
2023-06-29T00:43:46.752Z,12.55
2023-06-29T00:46:14.352Z,12.07
2023-06-29T00:48:41.173Z,12.15
2023-06-29T00:51:08.045Z,12.05
2023-06-29T00:53:34.941Z,11.77
2023-06-29T00:56:03.087Z,11.88
2023-06-29T00:58:30.413Z,12.33
2023-06-29T01:00:58.693Z,12.00
2023-06-29T01:03:26.683Z,12.52
2023-06-29T01:05:56.915Z,12.15
2023-06-29T01:08:37.055Z,11.85
2023-06-29T01:11:07.493Z,12.23
2023-06-29T01:16:04.058Z,11.93
2023-06-29T01:18:31.918Z,11.80
2023-06-29T01:20:59.940Z,12.13
2023-06-29T01:23:29.041Z,11.60
2023-06-29T01:28:25.929Z,11.48
2023-06-29T01:30:52.775Z,12.15
2023-06-29T01:33:23.684Z,11.68
2023-06-29T01:35:54.617Z,11.50
2023-06-29T01:38:35.068Z,11.85
2023-06-29T01:41:02.642Z,12.68
2023-06-29T01:45:58.199Z,11.45
2023-06-29T01:48:25.845Z,11.93
2023-06-29T01:50:52.798Z,12.80
2023-06-29T01:53:19.638Z,11.60
2023-06-29T01:55:46.533Z,11.55
2023-06-29T01:58:13.388Z,10.82
2023-06-29T02:00:40.914Z,11.98
2023-06-29T02:03:07.836Z,12.13
2023-06-29T02:05:34.676Z,11.48
2023-06-29T02:08:01.561Z,12.18
2023-06-29T02:10:28.363Z,11.15
2023-06-29T02:12:55.197Z,11.60
2023-06-29T02:15:22.682Z,11.52
2023-06-29T02:17:49.538Z,11.60
2023-06-29T02:20:18.426Z,11.75
2023-06-29T02:22:45.202Z,11.57
2023-06-29T02:25:14.818Z,12.50
2023-06-29T02:27:41.805Z,12.02
2023-06-29T02:30:09.326Z,11.95
2023-06-29T02:32:36.818Z,12.03
2023-06-29T02:35:04.469Z,11.93
2023-06-29T02:37:32.110Z,11.93
2023-06-29T02:39:58.974Z,11.88
2023-06-29T02:42:25.820Z,11.40
2023-06-29T02:44:52.579Z,12.95
2023-06-29T02:47:19.384Z,12.27
2023-06-29T02:49:46.535Z,12.05
2023-06-29T02:54:42.917Z,11.98
2023-06-29T02:57:09.884Z,12.15
2023-06-29T02:59:37.025Z,12.75
2023-06-29T03:02:03.987Z,12.23
2023-06-29T03:04:30.912Z,12.07
2023-06-29T03:06:57.753Z,11.82
2023-06-29T03:09:26.088Z,11.75
2023-06-29T03:11:52.865Z,11.77
2023-06-29T03:14:19.752Z,12.07
2023-06-29T03:16:46.597Z,12.05
2023-06-29T03:19:13.370Z,12.00
2023-06-29T03:21:40.132Z,12.00
2023-06-29T03:24:06.958Z,11.98
2023-06-29T03:26:33.744Z,11.98
2023-06-29T03:29:00.515Z,11.93
2023-06-29T03:31:27.391Z,11.77
2023-06-29T03:33:54.188Z,11.88
2023-06-29T03:36:20.936Z,11.38
2023-06-29T03:38:47.733Z,11.55
2023-06-29T03:41:14.465Z,11.68
2023-06-29T03:43:41.255Z,11.98
2023-06-29T03:46:08.074Z,11.63
2023-06-29T03:48:34.981Z,11.20
2023-06-29T03:51:01.910Z,11.40
2023-06-29T03:53:28.956Z,11.15
2023-06-29T03:55:55.821Z,11.50
2023-06-29T03:58:22.633Z,12.27
2023-06-29T04:00:49.415Z,11.98
2023-06-29T04:03:16.296Z,11.63
2023-06-29T04:05:43.387Z,12.10
2023-06-29T04:08:10.533Z,11.75
2023-06-29T04:10:37.446Z,11.00
2023-06-29T04:13:04.575Z,11.73
2023-06-29T04:15:31.527Z,11.38
2023-06-29T04:17:58.416Z,11.65
2023-06-29T04:20:25.353Z,11.95
2023-06-29T04:22:52.201Z,12.07
2023-06-29T04:25:19.331Z,11.95
2023-06-29T04:27:46.127Z,11.68
2023-06-29T04:30:13.949Z,11.65
2023-06-29T04:32:40.882Z,11.57
2023-06-29T04:35:10.742Z,11.80
2023-06-29T04:37:41.828Z,11.52
2023-06-29T04:40:10.699Z,12.57
2023-06-29T04:42:47.358Z,12.00
2023-06-29T04:45:20.701Z,12.55
2023-06-29T04:47:50.722Z,12.13
2023-06-29T04:50:25.961Z,11.50
2023-06-29T04:52:57.033Z,11.63
2023-06-29T04:55:24.180Z,12.43
2023-06-29T04:57:50.960Z,11.60
2023-06-29T05:00:18.209Z,12.27
2023-06-29T05:02:45.118Z,12.30
2023-06-29T05:05:12.739Z,12.05
2023-06-29T05:07:39.788Z,12.80
2023-06-29T05:10:07.029Z,12.15
2023-06-29T05:12:34.050Z,12.38
2023-06-29T05:15:00.871Z,12.27
2023-06-29T05:17:27.719Z,12.18
2023-06-29T05:19:54.528Z,13.00
2023-06-29T05:22:21.278Z,13.25
2023-06-29T05:24:49.047Z,12.65
2023-06-29T05:27:15.865Z,13.18
2023-06-29T05:29:42.632Z,13.10
2023-06-29T05:32:09.811Z,12.63
2023-06-29T05:34:36.782Z,12.98
2023-06-29T05:37:03.849Z,13.30
2023-06-29T05:39:30.717Z,13.70
2023-06-29T05:41:57.499Z,13.52
2023-06-29T05:44:24.244Z,13.38
2023-06-29T05:46:51.014Z,13.55
2023-06-29T05:49:17.811Z,12.80
2023-06-29T05:51:44.649Z,13.13
2023-06-29T05:54:11.476Z,13.73
2023-06-29T05:56:38.645Z,13.48
2023-06-29T05:59:05.524Z,13.52
2023-06-29T06:01:32.548Z,13.70
2023-06-29T06:03:59.626Z,13.38
2023-06-29T06:06:26.520Z,13.80
2023-06-29T06:08:53.337Z,13.35
2023-06-29T06:11:20.096Z,12.73
2023-06-29T06:13:46.903Z,13.90
2023-06-29T06:16:13.723Z,13.85
2023-06-29T06:18:40.508Z,13.90
2023-06-29T06:21:07.461Z,12.98
2023-06-29T06:23:34.648Z,13.82
2023-06-29T06:26:02.142Z,13.63
2023-06-29T06:28:29.230Z,13.50
2023-06-29T06:30:56.202Z,18.85
2023-06-29T06:33:23.063Z,21.02
2023-06-29T06:35:50.226Z,21.20
2023-06-29T06:38:17.148Z,20.65
2023-06-29T06:40:44.098Z,21.10
2023-06-29T06:43:11.096Z,20.67
2023-06-29T06:45:38.015Z,20.42
2023-06-29T06:48:05.394Z,20.30
2023-06-29T06:50:32.159Z,20.50
2023-06-29T06:52:58.939Z,21.83
2023-06-29T06:55:25.751Z,20.17
2023-06-29T06:57:52.614Z,19.98
2023-06-29T07:00:19.672Z,20.92
2023-06-29T07:02:46.862Z,20.67
2023-06-29T07:05:13.717Z,20.50
2023-06-29T07:07:40.613Z,20.52
2023-06-29T07:10:07.839Z,20.30
2023-06-29T07:12:34.608Z,20.10
2023-06-29T07:15:01.380Z,20.33
2023-06-29T07:17:28.880Z,19.63
2023-06-29T07:24:55.150Z,19.10
2023-06-29T07:27:21.978Z,19.50
2023-06-29T07:29:48.841Z,19.83
2023-06-29T07:32:15.615Z,19.65
2023-06-29T07:34:42.477Z,18.92
2023-06-29T07:37:09.290Z,19.98
2023-06-29T07:39:36.875Z,19.83
2023-06-29T07:42:03.910Z,19.20
2023-06-29T07:44:30.735Z,19.20
2023-06-29T07:46:57.645Z,20.27
2023-06-29T07:49:24.530Z,19.55
2023-06-29T07:51:51.345Z,20.63
2023-06-29T07:54:19.417Z,18.77
2023-06-29T07:59:16.196Z,19.38
2023-06-29T08:01:43.065Z,19.08
2023-06-29T08:04:10.563Z,19.35
2023-06-29T08:06:50.031Z,19.05
2023-06-29T08:09:18.465Z,19.27
2023-06-29T08:11:45.372Z,18.08
2023-06-29T08:14:12.137Z,18.88
2023-06-29T08:16:39.011Z,17.63
2023-06-29T08:19:05.902Z,17.95
2023-06-29T08:21:32.767Z,17.65
2023-06-29T08:23:59.703Z,17.95
2023-06-29T08:26:26.648Z,18.80
2023-06-29T08:28:53.513Z,17.75
2023-06-29T08:31:20.612Z,17.75
2023-06-29T08:33:47.793Z,17.70
2023-06-29T08:36:14.673Z,16.73
2023-06-29T08:38:44.388Z,16.83
2023-06-29T08:41:11.208Z,17.17
2023-06-29T08:43:37.992Z,17.30
2023-06-29T08:46:04.915Z,17.08
2023-06-29T08:48:33.216Z,16.33
2023-06-29T08:51:11.346Z,15.43
2023-06-29T08:53:40.893Z,15.82
2023-06-29T08:56:08.143Z,15.57
2023-06-29T08:58:35.055Z,15.27
2023-06-29T09:01:02.726Z,15.50
2023-06-29T09:03:30.089Z,15.55
2023-06-29T09:05:57.720Z,15.18
2023-06-29T09:08:27.721Z,15.70
2023-06-29T09:10:56.114Z,15.43
2023-06-29T09:13:29.232Z,15.32
2023-06-29T09:15:56.181Z,15.10
2023-06-29T09:18:24.633Z,15.48
2023-06-29T09:20:56.064Z,14.30
2023-06-29T09:23:30.016Z,14.88
2023-06-29T09:25:58.086Z,14.60
2023-06-29T09:28:25.472Z,14.52
2023-06-29T09:30:52.383Z,13.88
2023-06-29T09:33:20.370Z,14.43
2023-06-29T09:35:50.929Z,13.70
2023-06-29T09:38:18.415Z,13.70
2023-06-29T09:40:49.797Z,14.23
2023-06-29T09:43:21.937Z,13.05
2023-06-29T09:45:49.431Z,13.63
2023-06-29T09:50:53.703Z,12.93
2023-06-29T09:53:34.111Z,13.23
2023-06-29T09:56:03.230Z,13.55
2023-06-29T09:58:31.241Z,13.73
2023-06-29T10:01:00.873Z,13.67
2023-06-29T10:03:28.662Z,13.05
2023-06-29T10:05:58.533Z,12.37
2023-06-29T10:08:28.215Z,13.23
2023-06-29T10:11:03.510Z,13.20
2023-06-29T10:13:34.501Z,14.13
2023-06-29T10:16:03.925Z,15.70
2023-06-29T10:18:33.604Z,16.65
2023-06-29T10:21:00.471Z,16.23
2023-06-29T10:23:27.352Z,16.58
2023-06-29T10:25:54.433Z,16.20
2023-06-29T10:28:21.791Z,15.77
2023-06-29T10:30:49.587Z,14.82
2023-06-29T10:33:26.127Z,14.85
2023-06-29T10:36:02.672Z,15.60
2023-06-29T10:38:36.340Z,14.95
2023-06-29T10:41:07.303Z,15.20
2023-06-29T10:43:59.831Z,15.65
2023-06-29T10:46:45.780Z,16.13
2023-06-29T10:49:31.034Z,15.98
2023-06-29T10:52:05.328Z,15.48
2023-06-29T10:54:32.357Z,15.43
2023-06-29T10:57:01.233Z,15.30
2023-06-29T11:01:59.803Z,14.73
2023-06-29T11:04:28.454Z,14.25
2023-06-29T11:06:55.445Z,15.27
2023-06-29T11:09:22.299Z,15.10
2023-06-29T11:11:49.963Z,14.65
2023-06-29T11:14:17.906Z,15.30
2023-06-29T11:16:44.728Z,15.40
2023-06-29T11:19:13.612Z,15.00
2023-06-29T11:21:42.045Z,14.57
2023-06-29T11:24:10.743Z,13.25
2023-06-29T11:26:37.758Z,13.98
2023-06-29T11:29:09.193Z,14.05
2023-06-29T11:31:36.145Z,14.20
2023-06-29T11:34:03.287Z,14.57
2023-06-29T11:36:31.610Z,15.55
2023-06-29T11:41:32.703Z,15.18
2023-06-29T11:44:01.592Z,13.88
2023-06-29T11:46:33.393Z,14.82
2023-06-29T11:49:01.325Z,14.60
2023-06-29T11:51:29.675Z,13.83
2023-06-29T11:53:57.280Z,14.07
2023-06-29T11:56:29.938Z,14.40
2023-06-29T11:58:56.737Z,14.70
2023-06-29T12:01:23.541Z,13.55
2023-06-29T12:03:50.410Z,14.38
2023-06-29T12:06:17.290Z,14.65
2023-06-29T12:08:45.342Z,13.32
2023-06-29T12:11:16.688Z,13.18
2023-06-29T12:13:47.304Z,14.20
2023-06-29T12:18:45.091Z,14.25
2023-06-29T12:21:12.146Z,13.77
2023-06-29T12:23:38.996Z,13.75
2023-06-29T12:26:05.906Z,13.95
2023-06-29T12:28:33.667Z,13.20
2023-06-29T12:31:04.272Z,13.95
2023-06-29T12:33:31.099Z,13.48
2023-06-29T12:35:59.177Z,13.52
2023-06-29T12:38:26.085Z,13.77
2023-06-29T12:40:52.972Z,13.30
2023-06-29T12:43:19.765Z,13.68
2023-06-29T12:45:47.483Z,14.25
2023-06-29T12:48:14.417Z,13.45
2023-06-29T12:50:41.233Z,13.77
2023-06-29T12:53:08.029Z,13.68
2023-06-29T12:55:34.822Z,13.93
2023-06-29T12:58:01.604Z,13.65
2023-06-29T13:00:28.478Z,13.25
2023-06-29T13:02:55.486Z,14.35
2023-06-29T13:05:22.448Z,13.80
2023-06-29T13:07:49.293Z,13.73
2023-06-29T13:10:16.196Z,13.60
2023-06-29T13:12:43.179Z,14.10
2023-06-29T13:15:11.329Z,14.52
2023-06-29T13:17:38.342Z,13.85
2023-06-29T13:20:06.141Z,14.23
2023-06-29T13:22:35.088Z,14.13
2023-06-29T13:25:02.587Z,14.50
2023-06-29T13:27:29.373Z,14.02
2023-06-29T13:29:56.131Z,14.43
2023-06-29T13:32:22.962Z,16.35
2023-06-29T13:34:49.767Z,17.15
2023-06-29T13:37:16.789Z,16.35
2023-06-29T13:39:46.052Z,15.70
2023-06-29T13:42:16.407Z,16.63
2023-06-29T13:44:44.233Z,15.88
2023-06-29T13:47:17.069Z,15.60
2023-06-29T13:49:43.910Z,16.45
2023-06-29T13:52:10.788Z,15.85
2023-06-29T13:54:37.553Z,16.20
2023-06-29T13:57:06.227Z,16.20
2023-06-29T13:59:33.878Z,16.58
2023-06-29T14:02:02.240Z,16.45
2023-06-29T14:04:29.030Z,17.25
2023-06-29T14:06:55.856Z,16.48
2023-06-29T14:09:22.865Z,17.73
2023-06-29T14:11:49.760Z,16.63
2023-06-29T14:14:16.555Z,16.58
2023-06-29T14:16:44.485Z,16.73
2023-06-29T14:19:11.239Z,17.33
2023-06-29T14:21:38.084Z,17.17
2023-06-29T14:24:04.941Z,19.27
2023-06-29T14:26:31.762Z,18.73
2023-06-29T14:28:58.550Z,19.05
2023-06-29T14:31:25.330Z,18.77
2023-06-29T14:33:52.165Z,19.30
2023-06-29T14:36:19.044Z,19.08
2023-06-29T14:38:46.598Z,19.63
2023-06-29T14:41:13.442Z,18.60
2023-06-29T14:43:40.240Z,20.30
2023-06-29T14:46:07.099Z,18.25
2023-06-29T14:48:33.920Z,18.45
2023-06-29T14:51:00.736Z,17.27
2023-06-29T14:53:27.584Z,17.60
2023-06-29T14:56:11.294Z,17.95
2023-06-29T14:58:38.375Z,17.52
2023-06-29T15:01:05.318Z,17.05
2023-06-29T15:03:32.547Z,16.20
2023-06-29T15:05:59.450Z,15.82
2023-06-29T15:08:28.190Z,15.18
2023-06-29T15:13:21.804Z,15.75
2023-06-29T15:15:49.033Z,15.57
2023-06-29T15:18:16.151Z,14.90
2023-06-29T15:20:43.072Z,15.65
2023-06-29T15:23:10.087Z,15.50
2023-06-29T15:25:39.138Z,15.13
2023-06-29T15:28:06.976Z,15.52
2023-06-29T15:30:47.300Z,14.48
2023-06-29T15:33:18.522Z,16.95
2023-06-29T15:35:45.490Z,16.90
2023-06-29T15:38:12.546Z,17.40
2023-06-29T15:40:39.937Z,17.38
2023-06-29T15:43:06.861Z,18.13
2023-06-29T15:45:34.540Z,17.90
2023-06-29T15:48:01.429Z,17.83
2023-06-29T15:50:28.484Z,16.48
2023-06-29T15:52:55.327Z,17.05
2023-06-29T15:55:22.159Z,17.10
2023-06-29T15:57:49.070Z,16.67
2023-06-29T16:00:16.184Z,16.65
2023-06-29T16:02:42.949Z,16.73
2023-06-29T16:05:09.990Z,16.30
2023-06-29T16:07:38.432Z,16.02
2023-06-29T16:10:05.871Z,15.80
2023-06-29T16:12:32.815Z,16.10
2023-06-29T16:15:00.543Z,16.50
2023-06-29T16:17:29.414Z,16.63
2023-06-29T16:19:56.778Z,15.88
2023-06-29T16:22:24.637Z,15.48
2023-06-29T16:24:51.492Z,17.33
2023-06-29T16:27:18.302Z,15.98
2023-06-29T16:29:45.185Z,16.20
2023-06-29T16:32:12.104Z,17.48
2023-06-29T16:34:39.014Z,16.42
2023-06-29T16:37:07.845Z,17.10
2023-06-29T16:39:36.184Z,16.05
2023-06-29T16:42:03.277Z,16.80
2023-06-29T16:44:30.039Z,25.85
2023-06-29T16:46:56.807Z,18.13
2023-06-29T16:49:23.663Z,18.90
2023-06-29T16:51:50.500Z,17.15
2023-06-29T16:54:17.325Z,16.23
2023-06-29T16:56:44.644Z,16.92
2023-06-29T16:59:11.499Z,16.65
2023-06-29T17:01:38.286Z,20.38
2023-06-29T17:04:05.264Z,16.23
2023-06-29T17:06:32.043Z,16.27
2023-06-29T17:08:58.854Z,15.82
2023-06-29T17:11:26.697Z,15.40
2023-06-29T17:13:53.467Z,16.10
2023-06-29T17:16:21.243Z,15.52
2023-06-29T17:18:48.121Z,16.42
2023-06-29T17:21:15.739Z,16.13
2023-06-29T17:23:42.803Z,15.80
2023-06-29T17:26:10.600Z,15.40
2023-06-29T17:28:37.422Z,13.77
2023-06-29T17:31:04.449Z,14.25
2023-06-29T17:33:41.323Z,13.33
2023-06-29T17:36:16.638Z,12.40
2023-06-29T17:38:43.398Z,11.80
2023-06-29T17:41:10.498Z,12.15
2023-06-29T17:43:39.322Z,11.55
2023-06-29T17:46:06.256Z,10.30
2023-06-29T17:48:33.203Z,9.90
2023-06-29T17:51:15.517Z,9.40
2023-06-29T17:53:44.031Z,8.20
2023-06-29T17:56:13.146Z,7.90
2023-06-29T17:58:39.982Z,7.15
2023-06-29T18:01:06.735Z,6.15
2023-06-29T18:03:34.730Z,6.32
2023-06-29T18:06:02.560Z,6.40
2023-06-29T18:08:29.374Z,5.93
2023-06-29T18:10:56.154Z,6.05
2023-06-29T18:13:22.923Z,5.43
2023-06-29T18:15:50.004Z,5.13
2023-06-29T18:18:16.952Z,4.80
2023-06-29T18:20:43.848Z,4.72
2023-06-29T18:23:10.590Z,5.03
2023-06-29T18:25:37.389Z,4.93
2023-06-29T18:28:04.306Z,4.72
2023-06-29T18:30:31.078Z,7.30
2023-06-29T18:32:57.903Z,6.15
2023-06-29T18:35:24.684Z,4.50
2023-06-29T18:37:51.478Z,4.57
2023-06-29T18:40:18.376Z,4.47
2023-06-29T18:42:45.166Z,4.50
2023-06-29T18:45:11.956Z,4.60
2023-06-29T18:47:38.749Z,3.90
2023-06-29T18:50:07.248Z,3.78
2023-06-29T18:52:34.501Z,3.10
2023-06-29T18:55:01.419Z,3.10
2023-06-29T18:57:28.147Z,2.78
2023-06-29T18:59:54.929Z,2.70
2023-06-29T19:02:21.772Z,2.50
2023-06-29T19:04:48.633Z,2.30
2023-06-29T19:07:17.202Z,2.10
2023-06-29T19:09:44.333Z,2.05
2023-06-29T19:12:11.297Z,2.13
2023-06-29T19:14:39.525Z,1.77
2023-06-29T19:17:06.521Z,2.30
2023-06-29T19:19:34.190Z,2.05
2023-06-29T19:22:01.034Z,1.98
2023-06-29T19:24:27.914Z,2.20
2023-06-29T19:26:54.713Z,1.80
2023-06-29T19:29:21.465Z,1.90
2023-06-29T19:31:48.298Z,1.83
2023-06-29T19:34:15.166Z,1.63
2023-06-29T19:36:42.104Z,1.65
2023-06-29T19:39:08.993Z,1.52
2023-06-29T19:41:36.126Z,1.50
2023-06-29T19:44:03.055Z,1.40
2023-06-29T19:46:29.931Z,1.42
2023-06-29T19:48:56.745Z,1.42
2023-06-29T19:51:23.687Z,1.33
2023-06-29T19:53:50.476Z,1.20
2023-06-29T19:56:17.283Z,1.27
2023-06-29T19:58:44.145Z,1.48
2023-06-29T20:01:10.967Z,1.50
2023-06-29T20:03:37.743Z,1.80
2023-06-29T20:06:04.678Z,1.70
2023-06-29T20:08:31.489Z,1.90
2023-06-29T20:10:58.309Z,1.48
2023-06-29T20:13:25.118Z,1.20
2023-06-29T20:15:52.024Z,1.60
2023-06-29T20:18:18.985Z,1.20
2023-06-29T20:20:45.825Z,1.48
2023-06-29T20:23:12.707Z,1.27
2023-06-29T20:25:39.542Z,1.30
2023-06-29T20:28:06.394Z,1.30
2023-06-29T20:30:33.268Z,1.52
2023-06-29T20:33:00.226Z,1.40
2023-06-29T20:35:27.215Z,1.30
2023-06-29T20:37:54.592Z,1.52
2023-06-29T20:40:21.582Z,1.48
2023-06-29T20:42:48.341Z,1.70
2023-06-29T20:45:15.272Z,1.50
2023-06-29T20:47:42.111Z,1.50
2023-06-29T20:50:09.368Z,1.50
2023-06-29T20:52:36.228Z,1.58
2023-06-29T20:55:03.386Z,1.50
2023-06-29T20:57:30.216Z,1.38
2023-06-29T20:59:57.077Z,1.50
2023-06-29T21:02:24.374Z,1.33
2023-06-29T21:04:51.478Z,1.38
2023-06-29T21:07:19.002Z,1.27
2023-06-29T21:09:46.000Z,1.40
2023-06-29T21:12:13.488Z,1.50
2023-06-29T21:14:40.588Z,1.70
2023-06-29T21:17:07.941Z,1.60
2023-06-29T21:19:35.033Z,1.60
2023-06-29T21:22:02.053Z,1.48
2023-06-29T21:24:29.047Z,1.30
2023-06-29T21:26:55.914Z,1.30
2023-06-29T21:29:40.994Z,1.50
2023-06-29T21:32:13.099Z,1.50
2023-06-29T21:34:40.553Z,1.60
2023-06-29T21:37:08.425Z,1.40
2023-06-29T21:39:35.656Z,1.50
2023-06-29T21:42:02.578Z,1.55
2023-06-29T21:44:29.474Z,1.42
2023-06-29T21:46:56.601Z,1.60
2023-06-29T21:49:23.602Z,1.50
2023-06-29T21:51:50.445Z,1.52
2023-06-29T21:54:17.401Z,1.80
2023-06-29T21:56:45.343Z,1.70
2023-06-29T21:59:12.119Z,1.65
2023-06-29T22:01:38.944Z,1.75
2023-06-29T22:04:05.882Z,1.40
2023-06-29T22:06:32.767Z,1.70
2023-06-29T22:08:59.534Z,1.40
2023-06-29T22:11:29.108Z,1.50
2023-06-29T22:13:56.729Z,1.60
2023-06-29T22:16:24.119Z,1.50
2023-06-29T22:18:54.342Z,1.77
2023-06-29T22:21:22.639Z,1.73
2023-06-29T22:23:53.772Z,1.50
2023-06-29T22:26:21.546Z,1.70
2023-06-29T22:28:48.704Z,1.63
2023-06-29T22:31:18.250Z,1.65
2023-06-29T22:33:46.269Z,1.70
2023-06-29T22:36:14.903Z,1.60
2023-06-29T22:38:42.257Z,1.60
2023-06-29T22:41:09.400Z,2.00
2023-06-29T22:43:36.304Z,1.80
2023-06-29T22:46:03.403Z,1.45
2023-06-29T22:48:30.291Z,1.80
2023-06-29T22:50:57.176Z,1.80
2023-06-29T22:53:24.471Z,1.70
2023-06-29T22:55:51.298Z,1.70
2023-06-29T22:58:28.107Z,1.60
2023-06-29T23:00:56.094Z,1.58
2023-06-29T23:03:23.976Z,1.80
2023-06-29T23:05:50.859Z,1.80
2023-06-29T23:08:17.905Z,1.70
2023-06-29T23:10:47.632Z,1.90
2023-06-29T23:13:17.332Z,1.77
2023-06-29T23:15:45.350Z,2.25
2023-06-29T23:18:13.441Z,2.00
2023-06-29T23:20:44.848Z,1.83
2023-06-29T23:23:13.917Z,2.17
2023-06-29T23:25:42.816Z,1.98
2023-06-29T23:28:09.809Z,1.88
2023-06-29T23:30:36.705Z,1.80
2023-06-29T23:33:03.801Z,1.80
2023-06-29T23:35:30.718Z,1.80
2023-06-29T23:37:57.645Z,1.92
2023-06-29T23:40:26.609Z,1.80
2023-06-29T23:42:53.632Z,1.80
2023-06-29T23:45:20.393Z,1.88
2023-06-29T23:47:48.333Z,1.83
2023-06-29T23:50:15.466Z,1.88
2023-06-29T23:52:43.191Z,2.10
2023-06-29T23:55:12.477Z,1.92
2023-06-29T23:57:40.659Z,2.10
